Time;durP1;ratioP1;P1;durP2;ratioP2;P2;SDS_P1;SDS_P2;PMS_P1;PMS_P2;Temp;Humidity;BMP_temperature;BMP_pressure;BME280_temperature;BME280_humidity;BME280_pressure;Samples;Min_cycle;Max_cycle;Signal;HPM_P1;HPM_P2
2023/10/01 00:00:46;;;;;;;37.58;24.90;;;19.10;99.90;;;;;;4956520;28;20027;-73
2023/10/01 00:03:14;;;;;;;35.10;23.42;;;19.10;99.90;;;;;;4955252;29;20412;-73
2023/10/01 00:05:42;;;;;;;40.25;24.63;;;19.00;99.90;;;;;;4956947;28;20097;-76
2023/10/01 00:08:12;;;;;;;46.53;24.73;;;19.10;99.90;;;;;;4948230;28;20485;-77
2023/10/01 00:10:41;;;;;;;44.05;24.17;;;19.10;99.90;;;;;;4937117;29;20171;-77
2023/10/01 00:13:08;;;;;;;37.25;24.83;;;19.10;99.90;;;;;;4935856;29;20489;-77
2023/10/01 00:15:37;;;;;;;41.10;25.63;;;19.10;99.90;;;;;;4937004;29;20032;-76
2023/10/01 00:18:06;;;;;;;41.78;25.50;;;19.10;99.90;;;;;;4945630;29;20156;-76
2023/10/01 00:20:33;;;;;;;44.10;27.25;;;19.10;99.90;;;;;;4935669;29;20024;-76
2023/10/01 00:23:02;;;;;;;40.17;26.27;;;19.10;99.90;;;;;;4936806;29;20034;-76
2023/10/01 00:25:30;;;;;;;39.60;25.60;;;19.10;99.90;;;;;;4936888;29;20031;-77
2023/10/01 00:28:01;;;;;;;44.08;26.02;;;19.20;99.90;;;;;;4941174;28;20059;-76
2023/10/01 00:30:31;;;;;;;48.13;26.90;;;19.20;99.90;;;;;;4955903;29;20075;-75
2023/10/01 00:32:59;;;;;;;45.75;26.10;;;19.20;99.90;;;;;;4955697;29;20039;-76
2023/10/01 00:35:26;;;;;;;43.30;26.65;;;19.20;99.90;;;;;;4952589;28;20363;-75
2023/10/01 00:37:55;;;;;;;44.63;26.45;;;19.20;99.90;;;;;;4951828;28;20039;-76
2023/10/01 00:40:22;;;;;;;45.70;25.67;;;19.20;99.90;;;;;;4935354;29;20120;-76
2023/10/01 00:42:49;;;;;;;44.60;27.23;;;19.20;99.90;;;;;;4936449;29;20091;-76
2023/10/01 00:45:16;;;;;;;42.78;27.10;;;19.20;99.90;;;;;;4937117;29;20032;-86
2023/10/01 00:47:46;;;;;;;47.55;28.30;;;19.20;99.90;;;;;;4922823;29;20461;-86
2023/10/01 00:50:16;;;;;;;47.00;27.38;;;19.20;99.90;;;;;;4955496;28;20114;-86
2023/10/01 00:52:44;;;;;;;48.50;27.80;;;19.10;99.90;;;;;;4954924;29;20118;-84
2023/10/01 00:55:13;;;;;;;50.45;28.17;;;19.10;99.90;;;;;;4939325;29;20034;-85
2023/10/01 00:57:41;;;;;;;46.40;27.77;;;19.10;99.90;;;;;;4937178;29;20467;-86
2023/10/01 01:00:16;;;;;;;40.78;27.17;;;19.10;99.90;;;;;;4920254;29;20028;-86
2023/10/01 01:03:06;;;;;;;45.63;28.23;;;19.10;99.90;;;;;;4920360;29;20568;-86
2023/10/01 01:05:35;;;;;;;45.88;28.05;;;19.10;99.90;;;;;;4920430;29;20036;-85
2023/10/01 01:08:28;;;;;;;41.00;28.42;;;19.10;99.90;;;;;;4924748;29;20023;-86
2023/10/01 01:10:56;;;;;;;41.08;26.40;;;19.10;99.90;;;;;;4955090;29;20555;-85
2023/10/01 01:13:25;;;;;;;44.75;26.48;;;19.00;99.90;;;;;;4955143;29;20038;-86
2023/10/01 01:15:52;;;;;;;46.58;26.45;;;19.00;99.90;;;;;;4954930;29;20500;-86
2023/10/01 01:18:22;;;;;;;44.30;27.40;;;19.00;99.90;;;;;;4935143;29;20084;-85
2023/10/01 01:20:48;;;;;;;44.55;25.50;;;19.00;99.90;;;;;;4951707;28;20031;-85
2023/10/01 01:23:21;;;;;;;38.83;23.83;;;19.00;99.90;;;;;;4951582;29;20024;-85
2023/10/01 01:25:52;;;;;;;45.65;25.83;;;19.00;99.90;;;;;;4935918;29;20028;-86
2023/10/01 01:28:31;;;;;;;45.35;26.77;;;19.00;99.90;;;;;;4945317;28;20047;-86
2023/10/01 01:31:08;;;;;;;46.72;27.80;;;18.90;99.90;;;;;;4954885;29;20031;-86
2023/10/01 01:33:44;;;;;;;39.25;26.45;;;18.90;99.90;;;;;;4954774;29;20047;-85
2023/10/01 01:36:17;;;;;;;45.40;27.80;;;18.90;99.90;;;;;;4954839;29;20027;-85
2023/10/01 01:39:10;;;;;;;40.70;25.83;;;18.90;99.90;;;;;;4938689;29;20066;-85
2023/10/01 01:41:47;;;;;;;44.53;24.60;;;18.80;99.90;;;;;;4954955;29;20031;-86
2023/10/01 01:44:15;;;;;;;42.80;24.75;;;18.80;99.90;;;;;;4954719;29;20689;-85
2023/10/01 01:46:47;;;;;;;34.00;24.23;;;18.80;99.90;;;;;;4938708;29;20417;-86
2023/10/01 01:49:19;;;;;;;35.70;24.38;;;18.80;99.90;;;;;;4940680;29;20039;-86
2023/10/01 01:52:08;;;;;;;45.72;25.45;;;18.80;99.90;;;;;;4919636;29;20031;-86
2023/10/01 01:54:42;;;;;;;40.50;24.80;;;18.80;99.90;;;;;;4935088;29;20066;-85
2023/10/01 01:57:17;;;;;;;40.75;24.85;;;18.80;99.90;;;;;;4935067;29;20036;-85
2023/10/01 01:59:44;;;;;;;45.22;23.73;;;18.80;99.90;;;;;;4919590;29;20047;-86
2023/10/01 02:02:11;;;;;;;39.45;23.23;;;18.80;99.90;;;;;;4919461;29;20083;-85
2023/10/01 02:07:23;;;;;;;32.10;23.27;;;18.80;99.90;;;;;;4935697;29;20055;-85
2023/10/01 02:09:49;;;;;;;37.85;22.30;;;18.80;99.90;;;;;;4937306;29;20027;-85
2023/10/01 02:12:23;;;;;;;33.17;22.48;;;18.80;99.90;;;;;;4954420;29;20126;-85
2023/10/01 02:14:56;;;;;;;33.55;22.90;;;18.70;99.90;;;;;;4954477;29;20401;-86
2023/10/01 02:17:25;;;;;;;37.03;22.30;;;18.80;99.90;;;;;;4954615;29;20455;-85
2023/10/01 02:19:55;;;;;;;38.25;21.88;;;18.70;99.90;;;;;;4938511;29;20043;-85
2023/10/01 02:22:24;;;;;;;38.50;23.23;;;18.80;99.90;;;;;;4954353;29;20031;-85
2023/10/01 02:25:00;;;;;;;39.22;23.80;;;18.80;99.90;;;;;;4937639;29;20019;-85
2023/10/01 02:27:28;;;;;;;31.92;22.58;;;18.70;99.90;;;;;;4938075;29;20130;-85
2023/10/01 02:30:12;;;;;;;33.58;22.45;;;18.80;99.90;;;;;;4937864;29;20035;-85
2023/10/01 02:33:15;;;;;;;32.72;22.30;;;18.70;99.90;;;;;;4941892;29;20031;-85
2023/10/01 02:35:41;;;;;;;34.72;23.23;;;18.80;99.90;;;;;;4957796;29;20040;-85
2023/10/01 02:38:36;;;;;;;36.03;22.88;;;18.70;99.90;;;;;;4941973;29;20042;-85
2023/10/01 02:41:01;;;;;;;39.35;23.27;;;18.70;99.90;;;;;;4957155;29;20050;-84
2023/10/01 02:43:34;;;;;;;40.00;22.77;;;18.70;99.90;;;;;;4957562;29;20032;-85
2023/10/01 02:46:07;;;;;;;38.50;22.33;;;18.70;99.90;;;;;;4957768;29;20436;-86
2023/10/01 02:48:35;;;;;;;35.58;23.10;;;18.70;99.90;;;;;;4938554;29;20118;-85
2023/10/01 02:51:17;;;;;;;43.90;24.92;;;18.70;99.90;;;;;;4954297;28;20115;-85
2023/10/01 02:56:52;;;;;;;37.80;24.17;;;18.70;99.90;;;;;;4954360;28;20042;-85
2023/10/01 02:59:23;;;;;;;42.38;23.83;;;18.70;99.90;;;;;;4922476;29;20070;-85
2023/10/01 03:01:49;;;;;;;34.60;22.88;;;18.70;99.90;;;;;;4954140;28;20027;-85
2023/10/01 03:04:16;;;;;;;39.20;24.00;;;18.70;99.90;;;;;;4954036;29;20027;-85
2023/10/01 03:06:52;;;;;;;38.80;23.70;;;18.70;99.90;;;;;;4954098;28;20059;-83
2023/10/01 03:09:29;;;;;;;34.00;23.45;;;18.70;99.90;;;;;;4932161;29;20079;-85
2023/10/01 03:12:24;;;;;;;31.15;21.25;;;18.70;99.90;;;;;;4922322;29;20023;-86
2023/10/01 03:14:43;;;;;;;33.92;23.00;;;18.70;99.90;;;;;;4939041;29;20035;-85
2023/10/01 03:17:17;;;;;;;41.50;24.45;;;18.70;99.90;;;;;;4938070;29;20376;-85
2023/10/01 03:19:52;;;;;;;35.25;23.33;;;18.70;99.90;;;;;;4922199;29;20464;-85
2023/10/01 03:22:31;;;;;;;39.95;23.38;;;18.80;99.90;;;;;;4939004;29;20036;-85
2023/10/01 03:25:11;;;;;;;37.67;23.25;;;18.70;99.90;;;;;;4921962;29;20119;-86
2023/10/01 03:27:39;;;;;;;33.75;23.08;;;18.80;99.90;;;;;;4937489;29;20102;-86
2023/10/01 03:30:21;;;;;;;39.58;22.83;;;18.80;99.90;;;;;;4956888;29;20059;-85
2023/10/01 03:32:48;;;;;;;38.42;23.10;;;18.80;99.90;;;;;;4940879;29;20050;-86
2023/10/01 03:35:14;;;;;;;33.72;22.17;;;18.80;99.90;;;;;;4941174;29;20036;-85
2023/10/01 03:37:43;;;;;;;30.48;20.88;;;18.90;99.90;;;;;;4956873;29;20062;-85
2023/10/01 03:40:21;;;;;;;38.40;22.65;;;18.90;99.90;;;;;;4940739;29;20024;-85
2023/10/01 03:42:52;;;;;;;31.45;23.00;;;19.00;99.90;;;;;;4940277;29;20090;-85
2023/10/01 03:45:55;;;;;;;37.38;22.50;;;19.00;99.90;;;;;;4956660;29;20476;-85
2023/10/01 03:48:19;;;;;;;37.58;22.73;;;19.10;99.90;;;;;;4954689;29;20046;-86
2023/10/01 03:50:47;;;;;;;40.75;22.95;;;19.30;99.90;;;;;;4956416;29;20042;-85
2023/10/01 03:53:18;;;;;;;40.08;22.58;;;19.30;99.90;;;;;;4956609;29;20031;-85
2023/10/01 03:55:46;;;;;;;33.40;21.23;;;19.40;99.90;;;;;;4956458;29;20170;-85
2023/10/01 03:58:25;;;;;;;35.65;22.20;;;19.40;99.90;;;;;;4937178;29;20102;-86
2023/10/01 04:00:59;;;;;;;37.00;21.80;;;19.40;99.90;;;;;;4937782;28;20027;-85
2023/10/01 04:03:36;;;;;;;29.92;19.95;;;19.50;99.90;;;;;;4937267;29;20024;-85
2023/10/01 04:06:05;;;;;;;30.95;20.98;;;19.50;99.90;;;;;;4953708;28;20035;-82
2023/10/01 04:08:39;;;;;;;25.92;19.70;;;19.40;99.90;;;;;;4923663;29;20442;-83
2023/10/01 04:11:11;;;;;;;31.13;20.42;;;19.40;99.90;;;;;;4920355;29;20032;-83
2023/10/01 04:13:41;;;;;;;32.08;20.98;;;19.50;99.90;;;;;;4935974;29;20043;-83
2023/10/01 04:16:08;;;;;;;32.35;21.02;;;19.50;99.90;;;;;;4935876;29;20028;-82
2023/10/01 04:18:36;;;;;;;33.30;19.98;;;19.50;99.90;;;;;;4936070;29;20621;-83
2023/10/01 04:23:36;;;;;;;26.63;19.73;;;19.50;99.90;;;;;;4952095;28;20112;-73
2023/10/01 04:26:06;;;;;;;;;;;19.40;99.90;;;;;;4950093;29;20163;-71
2023/10/01 04:28:41;;;;;;;29.05;19.67;;;19.40;99.90;;;;;;4949985;29;19918;-71
2023/10/01 04:31:19;;;;;;;31.73;19.10;;;19.40;99.90;;;;;;4947606;29;20027;-71
2023/10/01 04:33:50;;;;;;;25.55;18.58;;;19.40;99.90;;;;;;4955824;29;20097;-71
2023/10/01 04:36:19;;;;;;;27.27;19.25;;;19.40;99.90;;;;;;4955876;29;20031;-71
2023/10/01 04:39:00;;;;;;;29.85;19.30;;;19.40;99.90;;;;;;4948237;28;20038;-71
2023/10/01 04:41:37;;;;;;;23.02;18.27;;;19.40;99.90;;;;;;4936445;29;20063;-72
2023/10/01 04:44:13;;;;;;;32.00;19.77;;;19.30;99.90;;;;;;4936563;29;20123;-72
2023/10/01 04:46:40;;;;;;;23.38;17.95;;;19.30;99.90;;;;;;4936635;29;20024;-71
2023/10/01 04:49:08;;;;;;;28.02;18.60;;;19.30;99.90;;;;;;4946445;29;20023;-71
2023/10/01 04:51:44;;;;;;;29.70;18.80;;;19.30;99.90;;;;;;4954272;29;20558;-72
2023/10/01 04:54:17;;;;;;;28.67;18.77;;;19.30;99.90;;;;;;4954831;28;20495;-71
2023/10/01 04:56:48;;;;;;;23.35;18.42;;;19.30;99.90;;;;;;4956254;28;20043;-88
2023/10/01 04:59:21;;;;;;;27.30;18.60;;;19.30;99.90;;;;;;4940509;29;20039;-86
2023/10/01 05:01:48;;;;;;;30.00;18.58;;;19.30;99.90;;;;;;4956591;29;20472;-86
2023/10/01 05:04:14;;;;;;;25.23;17.88;;;19.30;99.90;;;;;;4939868;29;20035;-86
2023/10/01 05:06:59;;;;;;;26.67;17.65;;;19.20;99.90;;;;;;4939749;29;20038;-86
2023/10/01 05:09:38;;;;;;;26.77;18.17;;;19.30;99.90;;;;;;4940342;29;20035;-85
2023/10/01 05:12:09;;;;;;;25.52;17.92;;;19.30;99.90;;;;;;4955632;29;20059;-85
2023/10/01 05:14:56;;;;;;;23.75;17.63;;;19.30;99.90;;;;;;4939084;29;20031;-84
2023/10/01 05:17:22;;;;;;;22.80;16.70;;;19.30;99.90;;;;;;4954917;29;20502;-84
2023/10/01 05:19:51;;;;;;;23.20;17.48;;;19.40;99.90;;;;;;4938689;29;20035;-84
2023/10/01 05:22:18;;;;;;;22.08;17.40;;;19.40;99.90;;;;;;4954607;29;20579;-84
2023/10/01 05:24:48;;;;;;;24.98;17.65;;;19.50;99.90;;;;;;4938843;29;20125;-83
2023/10/01 05:27:19;;;;;;;21.65;15.95;;;19.50;99.90;;;;;;4939960;29;20043;-85
2023/10/01 05:29:49;;;;;;;22.40;15.93;;;19.60;99.90;;;;;;4939846;29;20036;-85
2023/10/01 05:32:18;;;;;;;21.48;15.45;;;19.70;99.90;;;;;;4919686;29;20035;-86
2023/10/01 05:34:47;;;;;;;20.98;15.95;;;19.80;99.90;;;;;;4935520;29;20061;-85
2023/10/01 05:37:26;;;;;;;26.67;16.83;;;19.90;99.90;;;;;;4935292;29;20019;-85
2023/10/01 05:40:00;;;;;;;20.95;16.15;;;20.00;99.90;;;;;;4950642;29;20031;-86
2023/10/01 05:42:34;;;;;;;18.10;15.75;;;20.10;99.90;;;;;;4954601;29;20035;-85
2023/10/01 05:45:14;;;;;;;21.67;16.27;;;20.40;99.90;;;;;;4938562;29;20027;-86
2023/10/01 05:47:45;;;;;;;19.35;17.25;;;20.60;99.90;;;;;;4938645;29;20042;-87
2023/10/01 05:50:14;;;;;;;23.08;16.92;;;21.10;99.90;;;;;;4954431;29;20090;-85
2023/10/01 05:52:45;;;;;;;24.80;19.25;;;21.70;99.90;;;;;;4938141;29;20035;-85
2023/10/01 05:55:19;;;;;;;22.35;19.92;;;22.30;99.90;;;;;;4954254;29;20046;-86
2023/10/01 05:57:50;;;;;;;22.70;20.42;;;22.70;99.90;;;;;;4954218;29;20114;-85
2023/10/01 06:00:17;;;;;;;23.42;21.08;;;23.10;99.90;;;;;;4935620;29;20122;-84
2023/10/01 06:02:47;;;;;;;24.85;22.20;;;23.60;99.90;;;;;;4934475;29;20408;-85
2023/10/01 06:05:32;;;;;;;23.95;21.88;;;23.80;99.90;;;;;;4936167;29;20474;-86
2023/10/01 06:08:17;;;;;;;27.08;23.00;;;24.10;99.90;;;;;;4939512;29;20032;-88
2023/10/01 06:11:05;;;;;;;27.65;24.38;;;24.10;99.90;;;;;;4940524;29;20032;-90
2023/10/01 06:13:31;;;;;;;;;;;24.30;99.90;;;;;;4941623;29;20079;-90
2023/10/01 06:16:11;;;;;;;25.85;23.60;;;24.40;99.90;;;;;;4941258;29;19913;-90
2023/10/01 06:18:56;;;;;;;26.27;23.67;;;24.40;99.90;;;;;;4965696;28;20035;-88
2023/10/01 06:21:25;;;;;;;26.60;24.10;;;24.70;99.90;;;;;;4959006;29;20028;-89
2023/10/01 06:23:58;;;;;;;31.23;24.40;;;24.70;99.90;;;;;;4942572;29;20069;-88
2023/10/01 06:27:06;;;;;;;28.45;25.15;;;24.80;99.90;;;;;;4959141;29;20708;-91
2023/10/01 06:29:25;;;;;;;27.17;24.45;;;24.80;99.90;;;;;;4957124;29;20051;-87
2023/10/01 06:32:02;;;;;;;26.90;24.35;;;24.90;99.90;;;;;;4941124;29;20031;-85
2023/10/01 06:34:39;;;;;;;27.13;24.38;;;25.20;99.90;;;;;;4941529;29;20081;-85
2023/10/01 06:37:14;;;;;;;30.77;23.05;;;25.20;99.90;;;;;;4956889;29;20122;-84
2023/10/01 06:39:51;;;;;;;25.05;22.45;;;25.10;99.90;;;;;;4953785;29;20115;-82
2023/10/01 06:42:19;;;;;;;24.50;22.33;;;24.90;99.90;;;;;;4955316;28;20488;-83
2023/10/01 06:44:58;;;;;;;27.33;22.10;;;25.10;99.90;;;;;;4958225;28;20027;-90
2023/10/01 06:47:32;;;;;;;24.50;21.75;;;25.20;99.90;;;;;;4949114;29;20035;-89
2023/10/01 06:52:41;;;;;;;25.75;23.10;;;25.40;99.90;;;;;;4958493;29;20042;-88
2023/10/01 06:55:36;;;;;;;25.05;22.67;;;25.50;99.90;;;;;;4942006;29;20082;-89
2023/10/01 06:58:05;;;;;;;25.77;23.38;;;25.50;99.90;;;;;;4957060;29;20046;-90
2023/10/01 07:00:35;;;;;;;26.42;23.73;;;25.70;99.90;;;;;;4955009;28;20079;-85
2023/10/01 07:03:21;;;;;;;26.10;24.00;;;25.50;99.90;;;;;;4937297;29;20044;-84
2023/10/01 07:05:55;;;;;;;27.40;24.63;;;25.50;99.90;;;;;;4937151;29;20028;-83
2023/10/01 07:08:37;;;;;;;27.85;23.77;;;25.30;99.90;;;;;;4939118;29;20112;-82
2023/10/01 07:11:18;;;;;;;26.73;24.27;;;25.30;99.90;;;;;;4957556;28;20029;-84
2023/10/01 07:13:52;;;;;;;25.77;23.57;;;25.30;99.90;;;;;;4940650;29;20098;-85
2023/10/01 07:16:35;;;;;;;26.45;24.10;;;25.40;99.90;;;;;;4939453;29;20484;-84
2023/10/01 07:19:13;;;;;;;26.30;23.77;;;25.60;99.90;;;;;;4949022;29;20031;-84
2023/10/01 07:21:41;;;;;;;26.70;24.25;;;25.70;99.90;;;;;;4938164;29;20055;-84
2023/10/01 07:24:15;;;;;;;26.65;23.80;;;25.80;99.90;;;;;;4938248;29;20368;-87
2023/10/01 07:26:50;;;;;;;26.35;23.77;;;25.60;99.90;;;;;;4916784;29;20044;-84
2023/10/01 07:29:21;;;;;;;26.17;23.55;;;25.70;99.90;;;;;;4926378;29;20056;-85
2023/10/01 07:31:51;;;;;;;27.45;24.13;;;25.70;99.90;;;;;;4935687;29;20054;-83
2023/10/01 07:34:20;;;;;;;27.75;24.92;;;25.80;99.90;;;;;;4919878;29;20071;-83
2023/10/01 07:36:50;;;;;;;26.40;23.50;;;25.60;99.90;;;;;;4920040;29;20060;-81
2023/10/01 07:39:16;;;;;;;25.73;23.02;;;25.50;99.90;;;;;;4927520;29;20437;-83
2023/10/01 07:41:45;;;;;;;27.85;24.85;;;25.90;99.90;;;;;;4901356;29;20028;-82
2023/10/01 07:44:14;;;;;;;26.98;23.38;;;26.00;99.90;;;;;;4901504;29;20036;-82
2023/10/01 07:46:55;;;;;;;26.20;23.70;;;25.90;99.90;;;;;;4886028;29;20032;-83
2023/10/01 07:49:50;;;;;;;26.23;23.63;;;25.90;99.90;;;;;;4897261;29;20120;-83
2023/10/01 07:52:23;;;;;;;26.15;23.60;;;26.00;99.90;;;;;;4903669;29;20052;-83
2023/10/01 07:55:26;;;;;;;26.83;24.52;;;26.50;99.90;;;;;;4935277;29;20450;-84
2023/10/01 07:58:16;;;;;;;28.65;25.77;;;26.60;99.90;;;;;;4935294;29;20059;-84
2023/10/01 08:00:58;;;;;;;27.20;24.50;;;26.80;99.90;;;;;;4935395;29;20548;-84
2023/10/01 08:03:28;;;;;;;27.10;24.25;;;26.90;99.90;;;;;;4935956;29;20508;-85
2023/10/01 08:06:12;;;;;;;27.75;24.83;;;26.80;99.90;;;;;;4951938;29;20034;-84
2023/10/01 08:09:00;;;;;;;26.35;24.25;;;26.90;99.90;;;;;;4955403;29;20019;-85
2023/10/01 08:12:05;;;;;;;27.92;25.05;;;26.90;99.90;;;;;;4957020;29;20115;-84
2023/10/01 08:14:41;;;;;;;28.75;26.38;;;26.80;99.90;;;;;;4939357;29;20090;-83
2023/10/01 08:17:20;;;;;;;30.02;27.27;;;26.70;99.90;;;;;;4953952;29;20038;-83
2023/10/01 08:19:56;;;;;;;30.65;27.58;;;26.70;99.90;;;;;;4929541;29;20378;-84
2023/10/01 08:23:23;;;;;;;29.42;26.80;;;26.60;99.90;;;;;;4936332;29;20122;-84
2023/10/01 08:25:42;;;;;;;28.08;25.33;;;26.60;99.90;;;;;;4933546;29;20067;-83
2023/10/01 08:34:22;;;;;;;30.10;27.15;;;26.60;99.90;;;;;;4951627;29;20043;-83
2023/10/01 08:37:12;;;;;;;29.25;26.77;;;26.80;99.90;;;;;;4954373;29;20077;-83
2023/10/01 08:39:58;;;;;;;29.98;27.13;;;27.10;99.90;;;;;;4951513;29;20031;-81
2023/10/01 08:42:37;;;;;;;29.52;26.98;;;27.00;99.90;;;;;;4955926;29;20042;-82
2023/10/01 08:45:11;;;;;;;29.25;26.98;;;27.00;99.90;;;;;;4938752;29;20110;-81
2023/10/01 08:48:02;;;;;;;29.35;26.83;;;26.80;99.90;;;;;;4934922;29;20036;-82
2023/10/01 08:51:11;;;;;;;29.80;27.45;;;26.70;99.90;;;;;;4967769;28;20093;-82
2023/10/01 08:54:17;;;;;;;28.63;26.55;;;26.70;99.90;;;;;;4954038;29;20049;-81
2023/10/01 08:56:48;;;;;;;29.17;26.77;;;26.70;99.90;;;;;;4953670;29;20433;-81
2023/10/01 08:59:32;;;;;;;29.50;26.95;;;26.90;99.90;;;;;;4946680;29;20095;-82
2023/10/01 09:02:23;;;;;;;29.58;26.90;;;27.00;99.90;;;;;;4942398;29;20035;-81
2023/10/01 09:05:08;;;;;;;29.52;27.00;;;26.50;99.90;;;;;;4949865;29;20091;-81
2023/10/01 09:08:26;;;;;;;29.83;27.23;;;26.60;99.90;;;;;;4935732;29;20119;-80
2023/10/01 09:11:18;;;;;;;29.42;27.27;;;26.60;99.90;;;;;;4954017;28;20397;-82
2023/10/01 09:14:14;;;;;;;29.48;26.65;;;26.90;99.90;;;;;;4954713;28;20040;-82
2023/10/01 09:17:40;;;;;;;30.38;27.92;;;26.80;99.90;;;;;;4954013;29;20050;-80
2023/10/01 09:20:10;;;;;;;30.80;28.00;;;26.90;99.90;;;;;;4940846;28;20599;-81
2023/10/01 09:23:15;;;;;;;28.63;26.42;;;26.80;99.90;;;;;;4937100;29;20670;-81
2023/10/01 09:26:09;;;;;;;29.42;26.90;;;26.80;99.90;;;;;;4953821;29;20054;-81
2023/10/01 09:28:48;;;;;;;30.20;27.52;;;26.90;99.90;;;;;;4929247;29;20138;-80
2023/10/01 09:31:33;;;;;;;30.13;27.38;;;26.70;99.90;;;;;;4935792;29;20040;-83
2023/10/01 09:34:34;;;;;;;29.35;26.70;;;26.60;99.90;;;;;;4920927;29;20078;-82
2023/10/01 09:41:03;;;;;;;30.65;27.73;;;26.60;99.90;;;;;;4913316;29;20118;-81
2023/10/01 09:43:34;;;;;;;29.67;27.35;;;26.90;99.90;;;;;;4914210;29;20063;-83
2023/10/01 09:46:24;;;;;;;30.90;28.40;;;27.00;99.90;;;;;;4898385;29;20063;-82
2023/10/01 09:49:00;;;;;;;29.73;27.40;;;26.90;99.90;;;;;;4896724;29;20522;-82
2023/10/01 09:51:41;;;;;;;31.77;29.15;;;26.90;99.90;;;;;;4898483;29;20060;-82
2023/10/01 09:54:13;;;;;;;30.77;28.27;;;26.80;99.90;;;;;;4898755;29;20056;-79
2023/10/01 09:59:08;;;;;;;30.45;27.98;;;26.80;99.90;;;;;;4913589;29;20024;-81
2023/10/01 10:01:47;;;;;;;30.90;28.40;;;26.90;99.90;;;;;;4914402;29;20054;-81
2023/10/01 10:04:20;;;;;;;31.42;28.55;;;26.90;99.90;;;;;;4913156;29;20039;-83
2023/10/01 10:07:09;;;;;;;30.90;28.38;;;27.00;99.90;;;;;;4895280;29;20492;-82
2023/10/01 10:09:34;;;;;;;32.17;28.85;;;26.90;99.90;;;;;;4919564;29;20118;-82
2023/10/01 10:12:07;;;;;;;30.85;28.48;;;26.80;99.90;;;;;;4898515;29;20056;-84
2023/10/01 10:14:34;;;;;;;30.85;28.33;;;26.90;99.90;;;;;;4929714;29;20043;-82
2023/10/01 10:20:26;;;;;;;32.85;30.15;;;26.80;99.90;;;;;;4944762;29;20527;-82
2023/10/01 10:23:29;;;;;;;31.00;28.90;;;26.90;99.90;;;;;;4918446;29;20055;-82
2023/10/01 10:26:14;;;;;;;32.45;29.65;;;27.00;99.90;;;;;;4933704;29;20136;-82
2023/10/01 10:28:55;;;;;;;31.90;29.70;;;27.10;99.90;;;;;;4919515;29;20075;-82
2023/10/01 10:31:34;;;;;;;33.55;30.55;;;27.00;99.90;;;;;;4952980;29;20046;-82
2023/10/01 10:34:29;;;;;;;32.47;29.85;;;27.20;99.90;;;;;;4953212;29;20130;-82
2023/10/01 10:36:58;;;;;;;32.53;29.88;;;27.00;99.90;;;;;;4923571;29;20042;-82
2023/10/01 10:39:50;;;;;;;32.78;30.30;;;27.10;99.90;;;;;;4930680;29;20499;-82
2023/10/01 10:42:28;;;;;;;33.55;30.65;;;27.20;99.90;;;;;;4949960;28;20042;-81
2023/10/01 10:45:31;;;;;;;33.60;30.75;;;27.10;99.90;;;;;;4949959;29;20040;-82
2023/10/01 10:48:36;;;;;;;34.63;31.80;;;27.00;99.90;;;;;;4919392;29;20036;-81
2023/10/01 10:51:58;;;;;;;34.40;31.60;;;26.90;99.90;;;;;;4953815;28;20081;-81
2023/10/01 10:54:55;;;;;;;34.92;32.17;;;27.10;99.90;;;;;;4955839;29;20047;-81
2023/10/01 10:57:48;;;;;;;34.38;31.38;;;27.30;99.90;;;;;;4940683;29;20023;-81
2023/10/01 11:00:24;;;;;;;34.63;32.13;;;27.30;99.90;;;;;;4944196;28;20042;-81
2023/10/01 11:02:59;;;;;;;34.28;31.20;;;27.40;99.90;;;;;;4937297;29;20034;-81
2023/10/01 11:05:55;;;;;;;35.13;31.95;;;27.20;99.90;;;;;;4937116;29;20474;-81
2023/10/01 11:08:36;;;;;;;35.55;32.50;;;27.20;99.90;;;;;;4936982;29;20043;-81
2023/10/01 11:11:44;;;;;;;34.75;32.00;;;27.20;99.90;;;;;;4937925;29;20106;-81
2023/10/01 11:14:42;;;;;;;34.55;31.88;;;27.20;99.90;;;;;;4936890;29;20583;-82
2023/10/01 11:17:22;;;;;;;35.15;31.80;;;27.10;99.90;;;;;;4922477;29;20039;-79
2023/10/01 11:19:58;;;;;;;34.38;31.30;;;27.20;99.90;;;;;;4947416;29;20027;-82
2023/10/01 11:22:26;;;;;;;33.95;31.35;;;27.00;99.90;;;;;;4956759;28;20027;-82
2023/10/01 11:24:54;;;;;;;34.25;31.55;;;27.30;99.90;;;;;;4955292;29;20015;-82
2023/10/01 11:27:25;;;;;;;34.38;31.67;;;27.30;99.90;;;;;;4954699;29;20038;-81
2023/10/01 11:30:15;;;;;;;33.33;30.63;;;27.30;99.90;;;;;;4945970;29;20040;-82
2023/10/01 11:33:29;;;;;;;33.53;30.50;;;27.20;99.90;;;;;;4920901;29;20091;-81
2023/10/01 11:36:14;;;;;;;34.28;31.20;;;27.30;99.90;;;;;;4935374;29;20532;-80
2023/10/01 11:39:49;;;;;;;34.60;31.80;;;27.40;99.90;;;;;;4941740;29;20070;-82
2023/10/01 11:43:05;;;;;;;33.80;31.40;;;27.30;99.90;;;;;;4955548;29;20039;-79
2023/10/01 11:46:35;;;;;;;35.08;32.53;;;27.20;99.90;;;;;;4956606;29;20045;-79
2023/10/01 11:49:34;;;;;;;34.90;32.07;;;27.30;99.90;;;;;;4951270;29;20028;-80
2023/10/01 11:52:31;;;;;;;34.85;32.35;;;27.20;99.90;;;;;;4936365;29;20030;-80
2023/10/01 11:55:32;;;;;;;35.15;32.40;;;27.20;99.90;;;;;;4937485;29;20031;-80
2023/10/01 11:58:44;;;;;;;35.92;33.22;;;27.10;99.90;;;;;;4937397;29;20030;-80
2023/10/01 12:01:13;;;;;;;36.67;33.50;;;27.00;99.90;;;;;;4920048;29;20032;-80
2023/10/01 12:03:58;;;;;;;35.67;32.85;;;27.10;99.90;;;;;;4952302;28;20027;-80
2023/10/01 12:06:43;;;;;;;35.30;32.72;;;26.90;99.90;;;;;;4956185;29;20082;-80
2023/10/01 12:09:18;;;;;;;35.58;32.60;;;26.90;99.90;;;;;;4950676;29;20126;-80
2023/10/01 12:12:08;;;;;;;35.75;33.08;;;27.00;99.90;;;;;;4937142;29;20122;-80
2023/10/01 12:17:29;;;;;;;36.08;33.35;;;27.10;99.90;;;;;;4935890;29;20114;-80
2023/10/01 12:20:01;;;;;;;36.58;33.42;;;27.10;99.90;;;;;;4945469;29;20035;-80
2023/10/01 12:22:33;;;;;;;36.85;33.92;;;27.20;99.90;;;;;;4954841;28;20038;-80
2023/10/01 12:25:03;;;;;;;36.05;33.38;;;27.20;99.90;;;;;;4954711;29;20425;-80
2023/10/01 12:27:41;;;;;;;37.05;34.25;;;27.00;99.90;;;;;;4938554;29;20050;-79
2023/10/01 12:30:43;;;;;;;36.17;33.53;;;26.90;99.90;;;;;;4944055;28;20067;-79
2023/10/01 12:33:21;;;;;;;36.33;33.55;;;26.90;99.90;;;;;;4939159;29;20042;-80
2023/10/01 12:35:58;;;;;;;36.45;33.55;;;26.90;99.90;;;;;;4928795;29;20042;-81
2023/10/01 12:38:38;;;;;;;36.42;33.35;;;26.80;99.90;;;;;;4954734;29;20035;-80
2023/10/01 12:41:23;;;;;;;36.57;33.87;;;26.80;99.90;;;;;;4935663;29;20035;-80
2023/10/01 12:45:04;;;;;;;35.90;33.20;;;27.00;99.90;;;;;;4935483;29;20031;-80
2023/10/01 12:47:03;;;;;;;35.78;32.80;;;27.10;99.90;;;;;;4927900;29;20039;-80
2023/10/01 12:49:58;;;;;;;35.03;32.33;;;27.00;99.90;;;;;;4926710;29;20384;-80
2023/10/01 12:52:38;;;;;;;35.40;32.80;;;27.00;99.90;;;;;;4954054;29;20031;-86
2023/10/01 12:55:14;;;;;;;35.50;32.67;;;27.00;99.90;;;;;;4939220;29;20404;-81
2023/10/01 12:57:46;;;;;;;36.40;33.53;;;27.10;99.90;;;;;;4954347;29;20479;-80
2023/10/01 13:00:43;;;;;;;36.38;33.58;;;27.20;99.90;;;;;;4935012;29;20058;-80
2023/10/01 13:03:22;;;;;;;37.20;34.08;;;27.20;99.90;;;;;;4936284;29;20366;-81
2023/10/01 13:06:12;;;;;;;36.42;33.75;;;27.20;99.90;;;;;;4936202;29;20031;-80
2023/10/01 13:08:52;;;;;;;36.35;33.47;;;27.10;99.90;;;;;;4935956;29;20031;-80
2023/10/01 13:12:13;;;;;;;36.95;34.22;;;27.10;99.90;;;;;;4936224;29;20394;-81
2023/10/01 13:14:38;;;;;;;37.10;34.20;;;26.90;99.90;;;;;;4933741;29;20472;-80
2023/10/01 13:17:21;;;;;;;36.58;33.80;;;26.90;99.90;;;;;;4936140;29;20042;-81
2023/10/01 13:20:18;;;;;;;37.80;34.63;;;26.90;99.90;;;;;;4943056;29;20035;-80
2023/10/01 13:23:08;;;;;;;36.85;34.05;;;26.90;99.90;;;;;;4953777;29;20086;-80
2023/10/01 13:25:46;;;;;;;36.38;33.70;;;26.90;99.90;;;;;;4953910;29;20042;-81
2023/10/01 13:28:19;;;;;;;37.85;34.97;;;27.10;99.90;;;;;;4953206;29;20047;-81
2023/10/01 13:33:56;;;;;;;38.10;35.35;;;26.90;99.90;;;;;;4951033;29;20155;-80
2023/10/01 14:11:54;;;;;;;42.30;38.83;;;26.50;99.90;;;;;;4935479;29;20114;-79
2023/10/01 14:14:33;;;;;;;44.42;40.95;;;26.20;99.90;;;;;;4935446;29;20040;-80
2023/10/01 14:17:20;;;;;;;44.15;40.70;;;26.10;99.90;;;;;;4934198;29;20034;-79
2023/10/01 14:20:11;;;;;;;40.63;37.53;;;26.10;99.90;;;;;;4941613;29;20038;-81
2023/10/01 14:22:49;;;;;;;38.90;36.00;;;26.20;99.90;;;;;;4954663;29;20449;-80
2023/10/01 14:25:33;;;;;;;39.30;36.10;;;26.10;99.90;;;;;;4953465;28;20106;-81
2023/10/01 14:28:00;;;;;;;37.42;34.35;;;26.10;99.90;;;;;;4956768;29;20051;-81
2023/10/01 14:30:29;;;;;;;37.35;34.15;;;26.10;99.90;;;;;;4946331;28;20028;-81
2023/10/01 14:32:58;;;;;;;37.25;34.30;;;25.90;99.90;;;;;;4921960;29;20086;-81